createdAt,value
2022-08-09T00:01:23.021Z,54.76
2022-08-09T00:04:06.393Z,55.95
2022-08-09T00:06:38.956Z,56.66
2022-08-09T00:09:13.347Z,57.95
2022-08-09T00:12:02.558Z,57.86
2022-08-09T00:14:36.237Z,58.94
2022-08-09T00:17:06.956Z,58.72
2022-08-09T00:19:35.099Z,58.89
2022-08-09T00:22:04.269Z,59.89
2022-08-09T00:24:33.272Z,59.61
2022-08-09T00:27:01.571Z,60.64
2022-08-09T00:29:39.947Z,60.25
2022-08-09T00:32:26.515Z,61.06
2022-08-09T00:34:56.385Z,60.66
2022-08-09T00:37:24.257Z,59.95
2022-08-09T00:40:09.172Z,59.38
2022-08-09T00:44:15.309Z,59.43
2022-08-09T00:45:28.054Z,59.82
2022-08-09T00:47:55.865Z,60.36
2022-08-09T00:50:25.251Z,60.75
2022-08-09T00:52:55.271Z,61.19
2022-08-09T00:56:02.925Z,62.18
2022-08-09T00:58:14.891Z,63.84
2022-08-09T01:00:57.039Z,64.89
2022-08-09T01:03:56.776Z,65.57
2022-08-09T01:06:53.799Z,66.13
2022-08-09T01:10:10.205Z,67.33
2022-08-09T01:13:41.734Z,68.03
2022-08-09T01:16:25.637Z,68.58
2022-08-09T01:19:02.616Z,69.60
2022-08-09T01:21:44.943Z,69.56
2022-08-09T01:24:18.641Z,69.99
2022-08-09T01:27:08.862Z,70.07
2022-08-09T01:29:48.547Z,70.72
2022-08-09T01:32:34.763Z,70.36
2022-08-09T01:35:37.454Z,71.42
2022-08-09T01:38:15.864Z,71.66
2022-08-09T01:41:04.984Z,73.57
2022-08-09T01:43:50.827Z,73.57
2022-08-09T01:46:28.514Z,73.90
2022-08-09T01:49:16.402Z,73.62
2022-08-09T01:51:56.221Z,74.06
2022-08-09T01:54:42.293Z,73.82
2022-08-09T01:57:27.209Z,73.91
2022-08-09T02:00:19.211Z,73.67
2022-08-09T02:02:51.654Z,73.74
2022-08-09T02:05:37.773Z,72.65
2022-08-09T02:08:38.590Z,72.91
2022-08-09T02:11:16.587Z,73.21
2022-08-09T02:13:55.250Z,73.79
2022-08-09T02:16:53.330Z,74.52
2022-08-09T02:19:38.949Z,75.01
2022-08-09T02:22:35.890Z,75.18
2022-08-09T02:25:15.339Z,75.03
2022-08-09T02:28:03.730Z,74.42
2022-08-09T02:30:46.463Z,74.61
2022-08-09T02:33:37.915Z,75.02
2022-08-09T02:36:10.555Z,74.76
2022-08-09T02:38:47.619Z,74.77
2022-08-09T02:41:28.456Z,74.63
2022-08-09T02:44:10.545Z,74.54
2022-08-09T02:46:52.337Z,74.17
2022-08-09T02:49:20.483Z,74.66
2022-08-09T02:52:07.779Z,74.94
2022-08-09T02:54:36.098Z,74.97
2022-08-09T02:57:25.149Z,75.74
2022-08-09T03:00:21.144Z,76.00
2022-08-09T03:02:58.556Z,76.80
2022-08-09T03:05:34.741Z,78.06
2022-08-09T03:08:04.674Z,78.99
2022-08-09T03:10:34.644Z,79.69
2022-08-09T03:13:08.617Z,80.45
2022-08-09T03:16:06.208Z,81.75
2022-08-09T03:18:31.032Z,82.57
2022-08-09T03:21:00.196Z,83.03
2022-08-09T03:23:28.445Z,83.17
2022-08-09T03:26:03.550Z,83.25
2022-08-09T03:28:33.885Z,83.55
2022-08-09T03:31:10.144Z,84.51
2022-08-09T03:33:54.558Z,85.02
2022-08-09T03:36:27.658Z,85.32
2022-08-09T03:38:57.181Z,85.78
2022-08-09T03:41:30.010Z,85.58
2022-08-09T03:44:12.762Z,84.82
2022-08-09T03:46:40.307Z,84.65
2022-08-09T03:49:09.660Z,84.64
2022-08-09T03:51:58.805Z,84.85
2022-08-09T03:54:38.513Z,84.46
2022-08-09T03:57:18.440Z,84.35
2022-08-09T03:59:55.309Z,84.09
2022-08-09T04:02:29.462Z,83.93
2022-08-09T04:05:05.892Z,83.11
2022-08-09T04:07:52.320Z,83.71
2022-08-09T04:10:28.794Z,83.08
2022-08-09T04:13:04.365Z,82.77
2022-08-09T04:16:18.265Z,82.44
2022-08-09T04:18:21.224Z,82.40
2022-08-09T04:20:51.427Z,82.27
2022-08-09T04:23:23.531Z,81.04
2022-08-09T04:25:54.443Z,80.37
2022-08-09T04:28:30.622Z,79.73
2022-08-09T04:31:09.499Z,80.84
2022-08-09T04:33:51.777Z,82.49
2022-08-09T04:36:27.940Z,82.76
2022-08-09T04:38:59.553Z,82.64
2022-08-09T04:41:32.819Z,82.13
2022-08-09T04:44:10.985Z,81.05
2022-08-09T04:46:57.222Z,79.03
2022-08-09T04:49:53.606Z,79.23
2022-08-09T04:52:26.996Z,79.26
2022-08-09T04:55:01.038Z,78.73
2022-08-09T04:57:54.401Z,78.30
2022-08-09T05:00:17.506Z,78.18
2022-08-09T05:02:48.751Z,77.60
2022-08-09T05:05:31.500Z,74.50
2022-08-09T05:08:14.074Z,74.69
2022-08-09T05:10:43.149Z,73.51
2022-08-09T05:13:12.832Z,73.51
2022-08-09T05:15:52.157Z,73.08
2022-08-09T05:18:38.800Z,72.28
2022-08-09T05:21:22.942Z,71.57
2022-08-09T05:23:58.403Z,69.63
2022-08-09T05:26:45.284Z,69.72
2022-08-09T05:29:21.791Z,69.06
2022-08-09T05:31:59.094Z,68.52
2022-08-09T05:34:32.688Z,68.36
2022-08-09T05:37:05.223Z,67.63
2022-08-09T05:39:43.551Z,67.69
2022-08-09T05:42:17.375Z,67.28
2022-08-09T05:44:54.516Z,68.37
2022-08-09T05:47:25.286Z,68.87
2022-08-09T05:50:31.138Z,68.50
2022-08-09T05:52:44.285Z,68.32
2022-08-09T05:55:18.054Z,67.90
2022-08-09T05:57:55.653Z,68.09
2022-08-09T06:00:33.117Z,67.72
2022-08-09T06:03:04.044Z,68.71
2022-08-09T06:05:57.520Z,69.56
2022-08-09T06:08:26.578Z,67.49
2022-08-09T06:10:55.856Z,66.76
2022-08-09T06:13:24.564Z,65.49
2022-08-09T06:15:53.061Z,64.97
2022-08-09T06:18:25.326Z,64.35
2022-08-09T06:20:57.667Z,63.63
2022-08-09T06:23:57.272Z,63.14
2022-08-09T06:26:20.442Z,62.67
2022-08-09T06:28:59.894Z,63.31
2022-08-09T06:31:39.814Z,63.17
2022-08-09T06:34:18.986Z,62.99
2022-08-09T06:36:46.806Z,63.64
2022-08-09T06:39:16.506Z,64.07
2022-08-09T06:42:07.522Z,64.23
2022-08-09T06:44:32.308Z,64.44
2022-08-09T06:47:01.144Z,63.20
2022-08-09T06:50:12.032Z,62.67
2022-08-09T06:52:17.713Z,63.16
2022-08-09T06:54:45.953Z,63.10
2022-08-09T06:57:14.192Z,62.52
2022-08-09T07:00:54.027Z,61.88
2022-08-09T07:02:31.931Z,62.66
2022-08-09T07:05:01.631Z,61.52
2022-08-09T07:07:59.534Z,61.97
2022-08-09T07:10:29.497Z,61.43
2022-08-09T07:12:58.289Z,61.71
2022-08-09T07:16:38.441Z,60.37
2022-08-09T07:18:15.173Z,60.48
2022-08-09T07:20:47.693Z,61.51
2022-08-09T07:23:18.885Z,60.92
2022-08-09T07:25:52.343Z,61.41
2022-08-09T07:28:29.078Z,60.78
2022-08-09T07:30:57.062Z,59.83
2022-08-09T07:33:24.642Z,59.36
2022-08-09T07:35:53.877Z,60.08
2022-08-09T07:38:23.344Z,59.25
2022-08-09T07:41:10.102Z,59.08
2022-08-09T07:43:41.300Z,59.28
2022-08-09T07:46:19.486Z,59.59
2022-08-09T07:48:58.853Z,59.26
2022-08-09T07:52:04.744Z,59.59
2022-08-09T07:54:19.268Z,59.61
2022-08-09T07:56:56.035Z,59.56
2022-08-09T07:59:34.569Z,59.11
2022-08-09T08:02:11.398Z,59.01
2022-08-09T08:04:48.861Z,59.46
2022-08-09T08:08:06.180Z,59.25
2022-08-09T08:10:10.886Z,60.13
2022-08-09T08:12:44.097Z,60.91
2022-08-09T08:15:18.373Z,60.17
2022-08-09T08:17:55.591Z,60.96
2022-08-09T08:20:32.297Z,60.18
2022-08-09T08:23:16.449Z,59.13
2022-08-09T08:25:50.261Z,58.18
2022-08-09T08:28:31.873Z,59.02
2022-08-09T08:31:10.530Z,59.48
2022-08-09T08:33:53.460Z,58.86
2022-08-09T08:36:28.963Z,58.83
2022-08-09T08:38:58.760Z,59.02
2022-08-09T08:41:50.838Z,60.17
2022-08-09T08:44:22.952Z,60.09
2022-08-09T08:47:02.612Z,60.66
2022-08-09T08:49:46.473Z,60.15
2022-08-09T08:55:19.115Z,57.89
2022-08-09T08:57:56.520Z,58.56
2022-08-09T09:00:30.462Z,59.55
2022-08-09T09:03:11.563Z,58.99
2022-08-09T09:06:00.118Z,59.61
2022-08-09T09:08:41.070Z,60.34
2022-08-09T09:11:13.876Z,59.55
2022-08-09T09:13:56.327Z,59.08
2022-08-09T09:16:34.315Z,58.44
2022-08-09T09:19:37.572Z,57.35
2022-08-09T09:22:11.868Z,57.36
2022-08-09T09:24:45.848Z,55.66
2022-08-09T09:28:06.868Z,56.34
2022-08-09T09:33:13.943Z,55.66
2022-08-09T09:36:00.910Z,55.64
2022-08-09T09:38:52.379Z,56.53
2022-08-09T09:41:23.229Z,57.20
2022-08-09T09:44:12.490Z,57.08
2022-08-09T09:46:45.893Z,55.76
2022-08-09T09:49:56.219Z,54.92
2022-08-09T09:52:33.447Z,55.40
2022-08-09T09:55:23.927Z,54.58
2022-08-09T09:58:16.302Z,54.42
2022-08-09T10:00:59.615Z,54.24
2022-08-09T10:03:44.939Z,53.93
2022-08-09T10:06:24.640Z,53.12
2022-08-09T10:09:21.593Z,52.79
2022-08-09T10:12:11.859Z,52.35
2022-08-09T10:14:48.274Z,52.26
2022-08-09T10:17:50.197Z,51.80
2022-08-09T10:20:27.839Z,52.04
2022-08-09T10:23:20.374Z,50.93
2022-08-09T10:26:07.146Z,51.92
2022-08-09T10:28:41.652Z,52.69
2022-08-09T10:34:10.737Z,52.40
2022-08-09T10:36:56.317Z,51.85
2022-08-09T10:39:28.357Z,52.60
2022-08-09T10:41:56.744Z,52.49
2022-08-09T10:44:30.419Z,53.23
2022-08-09T10:48:19.229Z,52.58
2022-08-09T10:51:05.127Z,52.74
2022-08-09T10:53:54.643Z,50.75
2022-08-09T10:56:25.608Z,50.81
2022-08-09T10:58:56.913Z,51.87
2022-08-09T11:03:11.956Z,51.01
2022-08-09T11:04:32.724Z,51.13
2022-08-09T11:07:01.248Z,50.96
2022-08-09T11:09:38.495Z,50.08
2022-08-09T11:12:29.960Z,49.75
2022-08-09T11:15:24.563Z,50.33
2022-08-09T11:18:03.593Z,49.55
2022-08-09T11:20:49.880Z,49.88
2022-08-09T11:23:24.033Z,49.29
2022-08-09T11:25:57.920Z,48.43
2022-08-09T11:28:56.382Z,48.12
2022-08-09T11:31:43.461Z,47.19
2022-08-09T11:34:48.990Z,48.22
2022-08-09T11:37:40.742Z,46.23
2022-08-09T11:40:13.765Z,46.84
2022-08-09T11:42:52.858Z,45.67
2022-08-09T11:45:42.953Z,45.85
2022-08-09T11:48:33.536Z,46.36
2022-08-09T11:53:03.371Z,46.25
2022-08-09T11:54:28.984Z,45.72
2022-08-09T11:57:59.674Z,45.05
2022-08-09T12:00:33.667Z,43.89
2022-08-09T12:03:31.983Z,43.88
2022-08-09T12:05:52.238Z,43.28
2022-08-09T12:08:23.640Z,43.53
2022-08-09T12:11:00.012Z,42.63
2022-08-09T12:14:07.969Z,42.39
2022-08-09T12:16:38.393Z,42.46
2022-08-09T12:19:11.510Z,43.74
2022-08-09T12:21:48.773Z,42.33
2022-08-09T12:24:25.367Z,41.81
2022-08-09T12:29:10.220Z,42.08
2022-08-09T12:30:02.019Z,42.49
2022-08-09T12:32:44.769Z,41.77
2022-08-09T12:35:16.941Z,42.05
2022-08-09T12:37:51.541Z,41.73
2022-08-09T12:40:26.909Z,40.16
2022-08-09T12:42:56.536Z,39.06
2022-08-09T12:45:34.507Z,39.71
2022-08-09T12:48:20.508Z,39.54
2022-08-09T12:50:59.388Z,38.66
2022-08-09T12:53:44.779Z,40.36
2022-08-09T12:56:36.921Z,38.92
2022-08-09T12:59:20.542Z,39.56
2022-08-09T13:02:09.489Z,38.73
2022-08-09T13:04:38.832Z,38.98
2022-08-09T13:07:19.595Z,40.09
2022-08-09T13:10:01.415Z,39.45
2022-08-09T13:12:29.427Z,38.67
2022-08-09T13:15:09.652Z,39.68
2022-08-09T13:18:02.491Z,37.89
2022-08-09T13:22:33.773Z,38.29
2022-08-09T13:24:17.594Z,37.07
2022-08-09T13:26:49.656Z,37.41
2022-08-09T13:29:42.012Z,37.95
2022-08-09T13:32:17.630Z,36.97
2022-08-09T13:34:47.621Z,36.64
2022-08-09T13:37:24.619Z,36.89
2022-08-09T13:41:55.141Z,37.15
2022-08-09T13:42:55.323Z,36.66
2022-08-09T13:45:31.787Z,36.74
2022-08-09T13:48:11.076Z,36.19
2022-08-09T13:50:38.795Z,36.13
2022-08-09T13:53:07.346Z,35.37
2022-08-09T13:55:36.883Z,35.70
2022-08-09T13:58:05.284Z,35.45
2022-08-09T14:00:48.158Z,34.29
2022-08-09T14:04:02.622Z,33.72
2022-08-09T14:06:25.749Z,34.00
2022-08-09T14:08:57.056Z,34.36
2022-08-09T14:11:26.501Z,35.29
2022-08-09T14:14:22.823Z,35.56
2022-08-09T14:16:42.248Z,35.36
2022-08-09T14:19:10.549Z,35.52
2022-08-09T14:21:38.562Z,34.93
2022-08-09T14:24:10.501Z,34.58
2022-08-09T14:26:51.951Z,35.09
2022-08-09T14:30:18.712Z,34.89
2022-08-09T14:32:11.188Z,33.55
2022-08-09T14:34:41.507Z,33.53
2022-08-09T14:37:09.489Z,33.52
2022-08-09T14:39:46.438Z,33.06
2022-08-09T14:42:30.275Z,33.00
2022-08-09T14:46:39.512Z,33.46
2022-08-09T14:48:00.195Z,33.32
2022-08-09T14:50:34.193Z,33.85
2022-08-09T14:53:11.306Z,33.83
2022-08-09T14:55:41.979Z,34.67
2022-08-09T14:58:11.493Z,35.11
2022-08-09T15:00:42.319Z,34.70
2022-08-09T15:03:11.688Z,34.88
2022-08-09T15:05:50.326Z,35.45
2022-08-09T15:08:23.640Z,36.26
2022-08-09T15:11:01.012Z,36.21
2022-08-09T15:13:48.089Z,36.09
2022-08-09T15:16:20.818Z,35.58
2022-08-09T15:18:49.601Z,35.15
2022-08-09T15:21:55.135Z,34.45
2022-08-09T15:24:12.135Z,34.42
2022-08-09T15:26:46.516Z,34.09
2022-08-09T15:30:48.303Z,34.34
2022-08-09T15:32:03.729Z,33.68
2022-08-09T15:34:35.317Z,32.96
2022-08-09T15:37:36.953Z,33.36
2022-08-09T15:40:12.122Z,33.45
2022-08-09T15:42:43.418Z,32.83
2022-08-09T15:45:15.780Z,32.39
2022-08-09T15:48:03.366Z,32.27
2022-08-09T15:50:34.637Z,31.97
2022-08-09T15:54:02.149Z,32.53
2022-08-09T15:56:21.123Z,32.75
2022-08-09T15:58:42.604Z,32.53
2022-08-09T16:01:10.751Z,32.25
2022-08-09T16:03:41.755Z,34.86
2022-08-09T16:06:32.703Z,36.79
2022-08-09T16:09:01.106Z,38.52
2022-08-09T16:11:33.141Z,38.93
2022-08-09T16:14:07.161Z,39.30
2022-08-09T16:16:38.089Z,39.15
2022-08-09T16:19:09.700Z,39.12
2022-08-09T16:21:39.927Z,39.21
2022-08-09T16:24:29.811Z,39.58
2022-08-09T16:26:57.788Z,40.71
2022-08-09T16:29:36.913Z,41.28
2022-08-09T16:32:19.480Z,41.51
2022-08-09T16:34:57.822Z,42.14
2022-08-09T16:37:55.510Z,43.09
2022-08-09T16:40:20.406Z,44.10
2022-08-09T16:42:48.924Z,46.61
2022-08-09T16:45:21.180Z,47.38
2022-08-09T16:48:40.749Z,48.39
2022-08-09T16:50:39.588Z,48.92
2022-08-09T16:53:08.714Z,48.77
2022-08-09T16:55:58.548Z,49.92
2022-08-09T16:58:25.504Z,52.00
2022-08-09T17:00:53.689Z,52.94
2022-08-09T17:03:23.787Z,54.07
2022-08-09T17:06:09.329Z,54.37
2022-08-09T17:08:59.894Z,55.28
2022-08-09T17:11:40.758Z,55.83
2022-08-09T17:14:26.738Z,56.14
2022-08-09T17:17:01.316Z,56.00
2022-08-09T17:19:46.819Z,56.52
2022-08-09T17:22:29.069Z,56.88
2022-08-09T17:25:09.781Z,57.79
2022-08-09T17:27:49.564Z,59.09
2022-08-09T17:30:30.919Z,60.69
2022-08-09T17:33:05.602Z,61.66
2022-08-09T17:35:50.027Z,62.13
2022-08-09T17:38:32.015Z,63.09
2022-08-09T17:41:07.485Z,63.32
2022-08-09T17:43:37.074Z,63.84
2022-08-09T17:46:09.119Z,64.95
2022-08-09T17:48:51.832Z,65.36
2022-08-09T17:51:21.725Z,66.20
2022-08-09T17:53:55.268Z,66.18
2022-08-09T17:56:35.361Z,66.11
2022-08-09T17:59:09.121Z,66.29
2022-08-09T18:02:06.709Z,66.26
2022-08-09T18:04:28.831Z,66.51
2022-08-09T18:06:56.792Z,67.30
2022-08-09T18:09:35.879Z,66.98
2022-08-09T18:12:19.893Z,67.43
2022-08-09T18:14:54.420Z,67.44
2022-08-09T18:18:03.420Z,67.05
2022-08-09T18:20:56.084Z,66.85
2022-08-09T18:23:07.175Z,67.40
2022-08-09T18:25:52.428Z,67.34
2022-08-09T18:30:34.531Z,68.67
2022-08-09T18:31:12.473Z,69.16
2022-08-09T18:33:44.213Z,69.50
2022-08-09T18:36:32.053Z,69.98
2022-08-09T18:39:04.249Z,69.61
2022-08-09T18:41:34.776Z,68.74
2022-08-09T18:44:12.369Z,68.75
2022-08-09T18:46:47.211Z,69.02
2022-08-09T18:49:19.769Z,69.69
2022-08-09T18:51:55.361Z,70.02
2022-08-09T18:54:29.767Z,70.05
2022-08-09T18:57:05.851Z,70.18
2022-08-09T18:59:37.594Z,70.50
2022-08-09T19:02:18.279Z,70.96
2022-08-09T19:04:47.497Z,71.20
2022-08-09T19:07:28.357Z,71.28
2022-08-09T19:10:17.041Z,71.44
2022-08-09T19:13:01.683Z,72.21
2022-08-09T19:15:35.658Z,73.12
2022-08-09T19:18:05.844Z,73.62
2022-08-09T19:20:44.872Z,74.49
2022-08-09T19:24:35.917Z,74.64
2022-08-09T19:26:07.823Z,74.69
2022-08-09T19:28:40.053Z,75.40
2022-08-09T19:31:10.889Z,75.58
2022-08-09T19:33:38.509Z,76.25
2022-08-09T19:36:11.692Z,76.92
2022-08-09T19:38:41.118Z,76.53
2022-08-09T19:41:10.526Z,76.93
2022-08-09T19:44:01.593Z,76.44
2022-08-09T19:46:33.941Z,75.66
2022-08-09T19:50:08.110Z,75.23
2022-08-09T19:51:55.844Z,75.35
2022-08-09T19:54:26.236Z,75.31
2022-08-09T19:56:55.788Z,75.95
2022-08-09T19:59:57.862Z,76.69
2022-08-09T20:02:18.111Z,77.24
2022-08-09T20:05:02.159Z,77.32
2022-08-09T20:07:59.398Z,77.01
2022-08-09T20:10:34.605Z,77.20
2022-08-09T20:13:08.188Z,78.03
2022-08-09T20:16:33.030Z,78.21
2022-08-09T20:18:28.192Z,78.10
2022-08-09T20:20:57.335Z,78.00
2022-08-09T20:23:39.087Z,78.14
2022-08-09T20:26:10.176Z,78.49
2022-08-09T20:28:47.971Z,78.59
2022-08-09T20:31:16.909Z,78.87
2022-08-09T20:33:44.922Z,78.34
2022-08-09T20:36:13.763Z,77.65
2022-08-09T20:39:27.646Z,77.85
2022-08-09T20:41:34.647Z,78.56
2022-08-09T20:44:10.224Z,78.95
2022-08-09T20:46:42.712Z,79.38
2022-08-09T20:49:14.082Z,80.11
2022-08-09T20:51:50.870Z,79.71
2022-08-09T20:54:18.930Z,80.04
2022-08-09T20:56:53.699Z,79.37
2022-08-09T20:59:50.381Z,79.81
2022-08-09T21:02:17.832Z,79.85
2022-08-09T21:05:52.230Z,80.04
2022-08-09T21:07:40.491Z,81.31
2022-08-09T21:10:10.967Z,81.99
2022-08-09T21:12:39.937Z,81.66
2022-08-09T21:15:12.502Z,81.68
2022-08-09T21:18:20.617Z,81.54
2022-08-09T21:20:31.884Z,81.72
2022-08-09T21:23:00.925Z,81.88
2022-08-09T21:30:15.974Z,82.20
2022-08-09T21:32:46.845Z,82.33
2022-08-09T21:35:15.098Z,81.67
2022-08-09T21:37:56.932Z,80.99
2022-08-09T21:40:32.708Z,80.95
2022-08-09T21:43:01.931Z,80.29
2022-08-09T21:45:30.645Z,81.17
2022-08-09T21:47:59.404Z,80.57
2022-08-09T21:50:36.181Z,81.33
2022-08-09T21:53:15.763Z,82.16
2022-08-09T21:55:51.625Z,83.04
2022-08-09T21:58:19.466Z,83.00
2022-08-09T22:00:48.550Z,83.18
2022-08-09T22:03:25.591Z,83.21
2022-08-09T22:05:55.439Z,83.49
2022-08-09T22:08:26.186Z,83.42
2022-08-09T22:11:48.953Z,83.63
2022-08-09T22:13:44.070Z,84.39
2022-08-09T22:16:12.130Z,84.26
2022-08-09T22:18:53.121Z,83.98
2022-08-09T22:21:50.073Z,84.79
2022-08-09T22:24:21.152Z,84.72
2022-08-09T22:26:54.585Z,84.89
2022-08-09T22:29:28.389Z,84.87
2022-08-09T22:32:00.263Z,84.22
2022-08-09T22:34:28.202Z,84.32
2022-08-09T22:36:57.847Z,84.25
2022-08-09T22:39:57.259Z,84.61
2022-08-09T22:42:16.253Z,83.95
2022-08-09T22:45:11.543Z,84.16
2022-08-09T22:48:10.695Z,84.33
2022-08-09T22:50:32.837Z,84.87
2022-08-09T22:53:03.530Z,85.36
2022-08-09T22:56:06.124Z,84.95
2022-08-09T22:58:32.327Z,84.81
2022-08-09T23:01:03.405Z,84.71
2022-08-09T23:04:04.160Z,84.37
2022-08-09T23:06:35.230Z,83.56
2022-08-09T23:09:07.875Z,83.01
2022-08-09T23:11:35.823Z,82.44
2022-08-09T23:14:04.158Z,83.18
2022-08-09T23:16:38.161Z,83.92
2022-08-09T23:19:05.776Z,85.49
2022-08-09T23:21:35.175Z,86.17
2022-08-09T23:24:08.436Z,86.84
2022-08-09T23:26:38.354Z,87.15
2022-08-09T23:29:10.017Z,87.15
2022-08-09T23:31:38.054Z,87.16
2022-08-09T23:34:05.812Z,86.81
2022-08-09T23:36:35.281Z,87.32
2022-08-09T23:39:06.240Z,87.39
2022-08-09T23:41:35.172Z,87.75
2022-08-09T23:44:03.805Z,87.52
2022-08-09T23:46:32.685Z,87.28
2022-08-09T23:49:01.100Z,87.45
2022-08-09T23:51:29.264Z,87.46
2022-08-09T23:54:02.667Z,86.72
2022-08-09T23:56:53.058Z,87.82
2022-08-09T23:59:21.851Z,87.90
